Time;durP1;ratioP1;P1;durP2;ratioP2;P2;SDS_P1;SDS_P2;PMS_P1;PMS_P2;Temp;Humidity;BMP_temperature;BMP_pressure;BME280_temperature;BME280_humidity;BME280_pressure;Samples;Min_cycle;Max_cycle;Signal;HPM_P1;HPM_P2
2021/01/28 00:02:20;;;;;;;19.58;18.08;;;4.40;92.40;;;;;;5033291;28;20201;-77
2021/01/28 00:04:47;;;;;;;19.98;18.70;;;4.30;92.90;;;;;;5033361;28;20197;-77
2021/01/28 00:07:13;;;;;;;206.57;37.78;;;4.30;92.50;;;;;;5033102;28;20715;-77
2021/01/28 00:09:40;;;;;;;19.38;18.13;;;4.20;93.90;;;;;;5032978;28;20280;-77
2021/01/28 00:12:07;;;;;;;1999.90;552.22;;;4.30;94.20;;;;;;5033463;28;20201;-77
2021/01/28 00:14:34;;;;;;;18.70;17.50;;;4.30;95.10;;;;;;5033974;28;20199;-77
2021/01/28 00:17:01;;;;;;;19.48;18.20;;;4.30;94.90;;;;;;5034367;28;20223;-77
2021/01/28 00:19:27;;;;;;;19.20;18.00;;;4.30;94.00;;;;;;5035543;28;20359;-77
2021/01/28 00:21:54;;;;;;;18.95;17.75;;;4.30;93.40;;;;;;5034957;28;20209;-77
2021/01/28 00:24:20;;;;;;;19.73;18.52;;;4.30;93.10;;;;;;5033678;28;20296;-77
2021/01/28 00:26:47;;;;;;;19.98;18.33;;;4.30;92.60;;;;;;5032939;28;20590;-77
2021/01/28 00:29:13;;;;;;;18.88;17.67;;;4.20;94.40;;;;;;5032812;28;20651;-77
2021/01/28 00:31:39;;;;;;;22.73;18.92;;;4.30;93.20;;;;;;5033075;28;20213;-77
2021/01/28 00:34:06;;;;;;;19.55;18.15;;;4.30;92.70;;;;;;5032958;28;20287;-77
2021/01/28 00:36:33;;;;;;;18.30;17.10;;;4.30;94.30;;;;;;5032647;28;20200;-77
2021/01/28 00:38:59;;;;;;;55.38;21.70;;;4.40;94.00;;;;;;5032880;28;20233;-77
2021/01/28 00:41:26;;;;;;;19.33;18.08;;;4.30;94.60;;;;;;5032682;28;20651;-77
2021/01/28 00:43:52;;;;;;;46.42;19.92;;;4.40;94.20;;;;;;5032690;28;20204;-77
2021/01/28 00:46:18;;;;;;;18.25;17.20;;;4.40;93.60;;;;;;5032474;28;20207;-77
2021/01/28 00:48:45;;;;;;;19.55;18.35;;;4.40;93.50;;;;;;5032607;28;20213;-77
2021/01/28 00:51:12;;;;;;;18.80;17.63;;;4.40;93.10;;;;;;5032480;28;20212;-77
2021/01/28 00:53:39;;;;;;;18.25;17.05;;;4.40;92.50;;;;;;5032828;28;20202;-77
2021/01/28 00:56:05;;;;;;;18.60;17.20;;;4.40;92.50;;;;;;5032418;28;20280;-77
2021/01/28 00:58:32;;;;;;;18.90;17.80;;;4.40;93.00;;;;;;5031906;28;20228;-77
2021/01/28 01:00:58;;;;;;;416.65;63.25;;;4.40;92.80;;;;;;5032545;28;20243;-77
2021/01/28 01:03:26;;;;;;;18.23;16.98;;;4.50;93.40;;;;;;5032580;28;20197;-77
2021/01/28 01:05:53;;;;;;;18.85;17.65;;;4.50;92.90;;;;;;5032322;28;20197;-77
2021/01/28 01:08:23;;;;;;;18.58;17.48;;;4.60;92.20;;;;;;5032254;28;20218;-77
2021/01/28 01:10:52;;;;;;;18.88;17.77;;;4.50;92.10;;;;;;5032447;28;20192;-77
2021/01/28 01:13:21;;;;;;;23.05;17.85;;;4.50;92.40;;;;;;5032216;28;20200;-77
2021/01/28 01:15:48;;;;;;;17.92;16.92;;;4.50;92.40;;;;;;5032279;28;20208;-77
2021/01/28 01:18:17;;;;;;;149.80;28.00;;;4.50;93.80;;;;;;5032218;28;20220;-77
2021/01/28 01:20:43;;;;;;;18.27;17.13;;;4.60;94.10;;;;;;5032493;28;20207;-77
2021/01/28 01:23:10;;;;;;;18.60;17.50;;;4.50;95.10;;;;;;5032416;28;20204;-78
2021/01/28 01:25:37;;;;;;;19.90;18.70;;;4.50;93.30;;;;;;5032195;28;20288;-77
2021/01/28 01:28:04;;;;;;;18.75;17.65;;;4.50;92.40;;;;;;5032244;28;20714;-77
2021/01/28 01:30:31;;;;;;;19.38;18.15;;;4.50;91.90;;;;;;5032348;28;20285;-77
2021/01/28 01:32:57;;;;;;;283.85;52.33;;;4.60;91.70;;;;;;5032250;28;20201;-77
2021/01/28 01:35:25;;;;;;;19.50;18.17;;;4.60;91.20;;;;;;5032401;28;20198;-77
2021/01/28 01:37:52;;;;;;;18.63;17.52;;;4.60;91.30;;;;;;5032138;28;20323;-77
2021/01/28 01:40:22;;;;;;;114.60;26.13;;;4.60;91.60;;;;;;5033013;28;20671;-77
2021/01/28 01:42:50;;;;;;;18.73;17.55;;;4.60;91.70;;;;;;5033264;28;20199;-77
2021/01/28 01:45:19;;;;;;;19.38;18.20;;;4.40;92.20;;;;;;5032169;28;20254;-77
2021/01/28 01:47:49;;;;;;;19.08;17.77;;;4.60;92.10;;;;;;5031887;28;20220;-77
2021/01/28 01:50:31;;;;;;;17.48;16.48;;;4.60;92.40;;;;;;5032050;28;20208;-77
2021/01/28 01:53:00;;;;;;;18.55;17.45;;;4.60;91.30;;;;;;5032076;28;20512;-77
2021/01/28 01:55:30;;;;;;;19.63;18.52;;;4.70;90.60;;;;;;5032098;28;20197;-77
2021/01/28 01:58:03;;;;;;;19.02;17.80;;;4.70;90.10;;;;;;5031933;28;20231;-77
2021/01/28 02:00:30;;;;;;;19.23;18.05;;;4.60;90.60;;;;;;5032285;28;20285;-77
2021/01/28 02:03:01;;;;;;;18.20;17.10;;;4.60;90.50;;;;;;5031923;28;20544;-77
2021/01/28 02:05:31;;;;;;;18.27;17.17;;;4.60;90.70;;;;;;5031856;28;20196;-77
2021/01/28 02:07:59;;;;;;;17.48;16.48;;;4.70;90.30;;;;;;5031638;28;20225;-77
2021/01/28 02:10:26;;;;;;;19.38;18.23;;;4.60;91.50;;;;;;5034173;28;20205;-77
2021/01/28 02:12:52;;;;;;;18.85;17.75;;;4.70;90.90;;;;;;5035292;28;20199;-77
2021/01/28 02:15:20;;;;;;;19.08;17.90;;;4.70;90.50;;;;;;5035298;28;20600;-77
2021/01/28 02:17:53;;;;;;;19.17;17.98;;;4.70;90.50;;;;;;5034994;28;20312;-77
2021/01/28 02:20:46;;;;;;;18.70;17.50;;;4.80;90.00;;;;;;5035451;28;20564;-77
2021/01/28 02:23:19;;;;;;;19.00;17.58;;;4.90;90.00;;;;;;5007752;28;20197;-77
2021/01/28 02:25:50;;;;;;;18.45;17.45;;;4.90;89.30;;;;;;5035166;28;20193;-77
2021/01/28 02:28:18;;;;;;;17.40;16.40;;;4.80;89.50;;;;;;5035023;28;20217;-77
2021/01/28 02:30:47;;;;;;;17.95;16.90;;;4.80;89.60;;;;;;5035072;28;20674;-77
2021/01/28 02:33:36;;;;;;;18.80;17.70;;;4.80;89.60;;;;;;5035022;28;20198;-77
2021/01/28 02:36:03;;;;;;;18.30;16.92;;;4.80;89.90;;;;;;5034814;28;20208;-77
2021/01/28 02:38:29;;;;;;;17.83;16.83;;;4.80;89.60;;;;;;5034689;28;20761;-77
2021/01/28 02:40:56;;;;;;;17.88;16.83;;;4.80;90.30;;;;;;5034961;28;20198;-77
2021/01/28 02:43:23;;;;;;;17.10;16.30;;;4.80;90.80;;;;;;5034864;28;20201;-77
2021/01/28 02:46:02;;;;;;;17.85;16.85;;;4.90;90.80;;;;;;5034755;28;20201;-77
2021/01/28 02:48:28;;;;;;;17.65;16.75;;;4.90;90.40;;;;;;5034755;28;20294;-77
2021/01/28 02:50:55;;;;;;;17.60;16.60;;;4.90;90.80;;;;;;5034698;28;20223;-77
2021/01/28 02:53:21;;;;;;;18.00;17.00;;;4.90;90.30;;;;;;5034601;28;20202;-77
2021/01/28 02:55:48;;;;;;;17.77;16.75;;;4.90;90.00;;;;;;5034530;28;20193;-77
2021/01/28 02:58:15;;;;;;;17.27;16.38;;;4.90;89.50;;;;;;5034514;28;20225;-77
2021/01/28 03:00:42;;;;;;;17.63;16.63;;;5.00;89.40;;;;;;5034520;28;20686;-77
2021/01/28 03:03:10;;;;;;;18.17;17.17;;;5.00;89.50;;;;;;5034528;28;20197;-77
2021/01/28 03:05:37;;;;;;;17.52;16.60;;;5.00;89.50;;;;;;5034389;28;20667;-77
2021/01/28 03:08:05;;;;;;;17.55;16.65;;;5.00;89.50;;;;;;5034509;28;20601;-77
2021/01/28 03:10:31;;;;;;;18.75;17.65;;;5.00;89.40;;;;;;5034547;28;20201;-77
2021/01/28 03:12:57;;;;;;;18.45;17.45;;;5.00;89.50;;;;;;5034200;28;20202;-77
2021/01/28 03:15:26;;;;;;;17.25;16.35;;;5.00;89.90;;;;;;5034355;28;20205;-77
2021/01/28 03:17:53;;;;;;;17.95;16.95;;;5.00;89.50;;;;;;5034224;28;20241;-77
2021/01/28 03:20:21;;;;;;;17.88;16.88;;;5.10;89.30;;;;;;5033833;28;20335;-77
2021/01/28 03:22:47;;;;;;;18.55;17.35;;;5.10;89.40;;;;;;5034861;28;20198;-77
2021/01/28 03:25:17;;;;;;;18.15;17.15;;;5.10;89.30;;;;;;5035158;28;20660;-77
2021/01/28 03:27:45;;;;;;;19.02;18.13;;;5.10;91.40;;;;;;5034492;28;20225;-77
2021/01/28 03:30:16;;;;;;;17.83;16.92;;;5.20;89.60;;;;;;5034289;28;20201;-77
2021/01/28 03:32:43;;;;;;;18.20;17.20;;;5.20;89.00;;;;;;5034572;28;20209;-77
2021/01/28 03:35:10;;;;;;;17.85;16.88;;;5.20;88.60;;;;;;5035001;28;20210;-77
2021/01/28 03:37:36;;;;;;;17.83;16.92;;;5.20;88.50;;;;;;5036042;28;20214;-77
2021/01/28 03:40:04;;;;;;;35.30;18.33;;;5.30;88.60;;;;;;5034131;28;20274;-77
2021/01/28 03:42:31;;;;;;;17.40;16.40;;;5.20;89.60;;;;;;5033413;28;20663;-77
2021/01/28 03:44:57;;;;;;;37.53;18.52;;;5.30;89.00;;;;;;5033884;28;20258;-77
2021/01/28 03:47:24;;;;;;;17.77;16.80;;;5.20;89.00;;;;;;5033417;28;20228;-77
2021/01/28 03:49:51;;;;;;;17.02;16.20;;;5.20;89.20;;;;;;5033630;28;20292;-77
2021/01/28 03:52:17;;;;;;;18.70;17.73;;;5.20;89.30;;;;;;5033529;28;20695;-77
2021/01/28 03:54:45;;;;;;;17.70;16.80;;;5.20;89.30;;;;;;5033638;28;20199;-77
2021/01/28 03:57:11;;;;;;;17.27;16.33;;;5.30;88.90;;;;;;5033588;28;20216;-77
2021/01/28 03:59:38;;;;;;;16.42;15.55;;;5.30;88.90;;;;;;5033409;28;20213;-77
2021/01/28 04:02:04;;;;;;;18.05;16.95;;;5.30;88.90;;;;;;5033490;28;20203;-77
2021/01/28 04:04:30;;;;;;;17.65;16.73;;;5.30;89.50;;;;;;5033535;28;20587;-77
2021/01/28 04:06:58;;;;;;;183.27;30.90;;;5.30;90.20;;;;;;5033141;28;20312;-77
2021/01/28 04:09:24;;;;;;;18.67;17.38;;;5.20;90.80;;;;;;5033012;28;20254;-77
2021/01/28 04:11:51;;;;;;;880.03;113.85;;;5.30;91.70;;;;;;5033309;28;20198;-77
2021/01/28 04:14:17;;;;;;;17.95;16.85;;;5.40;91.40;;;;;;5033074;28;20230;-77
2021/01/28 04:16:44;;;;;;;17.42;16.42;;;5.40;92.20;;;;;;5032858;28;20230;-77
2021/01/28 04:19:10;;;;;;;18.30;17.20;;;5.30;92.20;;;;;;5032993;28;20228;-77
2021/01/28 04:21:37;;;;;;;19.52;18.40;;;5.30;91.50;;;;;;5033140;28;20218;-77
2021/01/28 04:24:05;;;;;;;20.05;18.73;;;5.20;91.70;;;;;;5033227;28;20565;-77
2021/01/28 04:26:31;;;;;;;19.83;18.65;;;5.30;91.50;;;;;;5032545;28;20225;-77
2021/01/28 04:28:58;;;;;;;19.58;18.48;;;5.20;91.40;;;;;;5032735;28;20199;-77
2021/01/28 04:31:24;;;;;;;19.50;18.35;;;5.20;91.20;;;;;;5032722;28;20280;-77
2021/01/28 04:33:51;;;;;;;20.50;19.10;;;5.20;92.30;;;;;;5032482;28;20199;-77
2021/01/28 04:36:17;;;;;;;1999.90;648.20;;;5.30;91.60;;;;;;5032750;28;20208;-77
2021/01/28 04:38:44;;;;;;;20.30;18.77;;;5.30;93.10;;;;;;5032806;28;20270;-77
2021/01/28 04:41:14;;;;;;;19.20;18.00;;;5.30;92.90;;;;;;5032725;28;20747;-78
2021/01/28 04:43:41;;;;;;;316.48;45.17;;;5.30;92.80;;;;;;5032844;28;20231;-78
2021/01/28 04:46:15;;;;;;;19.27;18.05;;;5.30;92.30;;;;;;5032711;28;20204;-78
2021/01/28 04:48:41;;;;;;;20.80;19.50;;;5.20;92.80;;;;;;5032736;28;20215;-78
2021/01/28 04:51:10;;;;;;;19.42;18.23;;;5.20;92.60;;;;;;5032547;28;20267;-78
2021/01/28 04:53:41;;;;;;;20.52;19.33;;;5.20;92.60;;;;;;5032739;28;20195;-78
2021/01/28 04:56:12;;;;;;;20.30;19.10;;;5.30;91.60;;;;;;5032413;28;20285;-78
2021/01/28 04:58:39;;;;;;;20.95;19.55;;;5.20;91.20;;;;;;5032446;28;20227;-77
2021/01/28 05:01:05;;;;;;;19.67;18.48;;;5.30;90.80;;;;;;5032604;28;20198;-77
2021/01/28 05:03:36;;;;;;;19.58;18.27;;;5.30;90.50;;;;;;5032884;28;20202;-77
2021/01/28 05:06:05;;;;;;;21.15;19.75;;;5.40;90.10;;;;;;5032393;28;20206;-77
2021/01/28 05:08:31;;;;;;;20.23;18.98;;;5.40;89.80;;;;;;5032186;28;20226;-77
2021/01/28 05:10:59;;;;;;;20.33;18.80;;;5.30;89.70;;;;;;5032519;28;20205;-78
2021/01/28 05:13:32;;;;;;;20.30;19.00;;;5.30;90.70;;;;;;5032281;28;20198;-77
2021/01/28 05:16:17;;;;;;;20.23;19.02;;;5.40;90.10;;;;;;5032356;28;20202;-77
2021/01/28 05:18:43;;;;;;;19.05;17.85;;;5.40;89.60;;;;;;5032214;28;20682;-77
2021/01/28 05:21:16;;;;;;;19.63;18.33;;;5.40;89.50;;;;;;5032277;28;20198;-77
2021/01/28 05:23:43;;;;;;;19.05;17.90;;;5.40;89.70;;;;;;5032389;28;20744;-77
2021/01/28 05:26:38;;;;;;;21.35;20.00;;;5.40;89.80;;;;;;5032183;28;20562;-77
2021/01/28 05:29:24;;;;;;;20.70;19.40;;;5.30;89.90;;;;;;4997629;28;20197;-77
2021/01/28 05:31:52;;;;;;;22.45;20.95;;;5.40;89.60;;;;;;5032310;28;20198;-77
2021/01/28 05:34:25;;;;;;;20.90;19.60;;;5.30;89.70;;;;;;5032333;28;20681;-77
2021/01/28 05:36:55;;;;;;;20.15;18.90;;;5.30;89.80;;;;;;5032139;28;20588;-77
2021/01/28 05:39:26;;;;;;;36.70;21.48;;;5.40;89.70;;;;;;5032181;28;20214;-77
2021/01/28 05:42:06;;;;;;;20.48;19.10;;;5.40;89.90;;;;;;5032246;28;20201;-77
2021/01/28 05:44:38;;;;;;;22.90;20.83;;;5.40;90.50;;;;;;5034950;28;20567;-77
2021/01/28 05:47:07;;;;;;;19.92;18.73;;;5.30;90.40;;;;;;5035786;28;20226;-77
2021/01/28 05:49:35;;;;;;;20.08;18.88;;;5.30;90.10;;;;;;5036018;28;20218;-77
2021/01/28 05:52:14;;;;;;;20.58;19.38;;;5.40;89.40;;;;;;5035703;28;20682;-77
2021/01/28 05:54:41;;;;;;;20.20;19.00;;;5.50;89.00;;;;;;5035829;28;20558;-77
2021/01/28 05:57:10;;;;;;;20.33;19.10;;;5.40;88.70;;;;;;5035440;28;20219;-77
2021/01/28 05:59:49;;;;;;;20.63;19.33;;;5.50;88.60;;;;;;5035785;28;20313;-77
2021/01/28 06:02:37;;;;;;;50.95;23.38;;;5.50;89.00;;;;;;5035809;28;20255;-77
2021/01/28 06:05:15;;;;;;;19.15;17.95;;;5.40;90.20;;;;;;5035639;28;20203;-77
2021/01/28 06:08:02;;;;;;;20.02;18.58;;;5.40;91.00;;;;;;5035151;28;20217;-77
2021/01/28 06:10:59;;;;;;;19.08;17.88;;;5.50;90.40;;;;;;5005310;28;20201;-77
2021/01/28 06:14:11;;;;;;;20.73;19.20;;;5.50;90.30;;;;;;5035272;28;20195;-77
2021/01/28 06:16:48;;;;;;;20.02;18.63;;;5.40;90.50;;;;;;4997718;28;20199;-77
2021/01/28 06:19:39;;;;;;;20.15;18.75;;;5.40;91.10;;;;;;5035360;28;20690;-77
2021/01/28 06:22:13;;;;;;;19.25;17.63;;;5.40;90.90;;;;;;5035397;28;20205;-77
2021/01/28 06:24:57;;;;;;;17.90;16.90;;;5.40;90.70;;;;;;5035315;28;20203;-78
2021/01/28 06:28:03;;;;;;;18.23;17.02;;;5.40;90.80;;;;;;5035061;28;20614;-77
2021/01/28 06:30:36;;;;;;;19.27;18.08;;;5.40;90.60;;;;;;5035137;28;20286;-77
2021/01/28 06:33:32;;;;;;;460.75;61.50;;;5.40;91.00;;;;;;5036428;28;20203;-77
2021/01/28 06:36:25;;;;;;;18.65;17.25;;;5.40;91.00;;;;;;5036496;28;20210;-77
2021/01/28 06:39:24;;;;;;;18.30;17.10;;;5.40;91.40;;;;;;5035206;28;20218;-77
2021/01/28 06:42:00;;;;;;;18.60;17.17;;;5.50;91.30;;;;;;5023794;28;20199;-77
2021/01/28 06:44:32;;;;;;;567.83;84.43;;;5.50;92.20;;;;;;5034921;28;20269;-77
2021/01/28 06:47:03;;;;;;;18.80;17.70;;;5.40;92.60;;;;;;5034772;28;20224;-77
2021/01/28 06:49:40;;;;;;;17.98;16.88;;;5.50;92.80;;;;;;5034854;28;20548;-77
2021/01/28 06:52:28;;;;;;;17.73;16.63;;;5.40;92.90;;;;;;5034611;28;20667;-77
2021/01/28 06:55:01;;;;;;;17.42;16.20;;;5.50;92.50;;;;;;5034094;28;20201;-77
2021/01/28 06:57:36;;;;;;;18.50;17.30;;;5.60;92.10;;;;;;5034546;28;20245;-77
2021/01/28 07:00:10;;;;;;;17.42;16.23;;;5.50;92.20;;;;;;5034704;28;20305;-78
2021/01/28 07:02:57;;;;;;;18.10;17.10;;;5.50;92.40;;;;;;5034836;28;20266;-77
2021/01/28 07:05:47;;;;;;;17.33;16.15;;;5.60;92.30;;;;;;5034559;28;20210;-77
2021/01/28 07:08:24;;;;;;;86.38;20.92;;;5.60;92.00;;;;;;5034318;28;20225;-77
2021/01/28 07:10:50;;;;;;;17.60;16.48;;;5.60;93.70;;;;;;5034610;28;20203;-77
2021/01/28 07:13:21;;;;;;;17.85;16.70;;;5.60;93.50;;;;;;5034143;28;20212;-77
2021/01/28 07:15:52;;;;;;;18.73;17.40;;;5.60;93.60;;;;;;5034302;28;20586;-77
2021/01/28 07:18:26;;;;;;;17.33;16.23;;;5.50;94.00;;;;;;5034263;28;20764;-77
2021/01/28 07:21:02;;;;;;;17.55;16.45;;;5.60;93.50;;;;;;5034360;28;20196;-77
2021/01/28 07:23:31;;;;;;;18.88;17.63;;;5.60;93.90;;;;;;5034443;28;20203;-77
2021/01/28 07:26:13;;;;;;;17.55;16.35;;;5.60;93.50;;;;;;5036692;28;20288;-77
2021/01/28 07:28:41;;;;;;;16.50;15.30;;;5.70;93.70;;;;;;5035492;28;20219;-77
2021/01/28 07:31:41;;;;;;;24.95;18.30;;;5.60;94.40;;;;;;5034140;28;20216;-77
2021/01/28 07:34:11;;;;;;;15.10;14.20;;;5.60;94.80;;;;;;5034098;28;20194;-77
2021/01/28 07:36:49;;;;;;;18.00;16.48;;;5.50;94.30;;;;;;5033747;28;20208;-77
2021/01/28 07:39:37;;;;;;;16.35;15.15;;;5.70;94.90;;;;;;5034070;28;20689;-77
2021/01/28 07:42:09;;;;;;;16.40;15.40;;;5.70;94.40;;;;;;5033771;28;20196;-77
2021/01/28 07:44:44;;;;;;;16.10;15.20;;;5.70;93.90;;;;;;5034103;28;20193;-77
2021/01/28 07:47:48;;;;;;;16.80;15.80;;;5.80;93.70;;;;;;5033782;28;20304;-77
2021/01/28 07:50:32;;;;;;;16.60;15.60;;;5.80;94.30;;;;;;5033775;28;20199;-77
2021/01/28 07:53:45;;;;;;;16.88;15.77;;;5.70;94.00;;;;;;5033748;28;20680;-77
2021/01/28 07:56:45;;;;;;;17.25;16.15;;;5.70;93.70;;;;;;5033563;28;20205;-77
2021/01/28 07:59:14;;;;;;;45.10;18.05;;;5.80;93.80;;;;;;5033547;28;20221;-77
2021/01/28 08:01:42;;;;;;;51.20;18.00;;;5.80;93.50;;;;;;5033577;28;20206;-77
2021/01/28 08:04:20;;;;;;;17.63;16.42;;;5.80;93.30;;;;;;5033612;28;20205;-77
2021/01/28 08:06:48;;;;;;;17.02;16.00;;;5.80;93.80;;;;;;5033304;28;20219;-77
2021/01/28 08:09:17;;;;;;;17.15;15.85;;;5.80;94.10;;;;;;5033205;28;20205;-77
2021/01/28 08:11:48;;;;;;;16.75;15.75;;;5.80;94.70;;;;;;5033519;28;20207;-77
2021/01/28 08:14:15;;;;;;;16.15;15.25;;;5.80;94.00;;;;;;5033449;28;20208;-77
2021/01/28 08:16:48;;;;;;;16.23;15.32;;;5.80;93.90;;;;;;5033221;28;20286;-77
2021/01/28 08:19:18;;;;;;;16.80;15.80;;;5.80;94.00;;;;;;5033325;28;20223;-77
2021/01/28 08:21:45;;;;;;;16.77;15.63;;;5.90;93.80;;;;;;5033222;28;20209;-77
2021/01/28 08:24:34;;;;;;;15.45;14.55;;;5.90;93.80;;;;;;5033293;28;20230;-77
2021/01/28 08:27:10;;;;;;;20.20;15.88;;;6.00;93.50;;;;;;5032854;28;20247;-77
2021/01/28 08:29:36;;;;;;;21.58;16.73;;;5.90;93.60;;;;;;5033261;28;20267;-77
2021/01/28 08:32:15;;;;;;;16.45;15.15;;;6.00;93.70;;;;;;5033288;28;20291;-77
2021/01/28 08:34:41;;;;;;;14.50;13.70;;;6.10;93.80;;;;;;5033232;28;20206;-77
2021/01/28 08:37:13;;;;;;;239.77;34.67;;;6.10;93.70;;;;;;5033377;28;20247;-77
2021/01/28 08:39:40;;;;;;;16.13;15.05;;;6.10;93.60;;;;;;5034191;28;20590;-77
2021/01/28 08:42:09;;;;;;;14.75;13.85;;;6.10;94.10;;;;;;5033358;28;20562;-77
2021/01/28 08:44:39;;;;;;;16.00;15.10;;;6.20;93.70;;;;;;5032844;28;20249;-77
2021/01/28 08:47:09;;;;;;;16.48;15.25;;;6.20;93.50;;;;;;5032571;28;20579;-77
2021/01/28 08:49:36;;;;;;;16.17;15.23;;;6.10;93.60;;;;;;5032811;28;20261;-77
2021/01/28 08:52:06;;;;;;;15.90;14.80;;;6.20;93.50;;;;;;5033001;28;20218;-77
2021/01/28 08:54:35;;;;;;;15.48;14.57;;;6.30;93.10;;;;;;5033478;28;20199;-77
2021/01/28 08:57:04;;;;;;;14.98;14.18;;;6.10;93.30;;;;;;5033529;28;20676;-77
2021/01/28 08:59:38;;;;;;;16.27;14.73;;;6.20;93.60;;;;;;5033742;28;20230;-77
2021/01/28 09:02:05;;;;;;;15.18;14.13;;;6.30;93.50;;;;;;5034399;28;20199;-77
2021/01/28 09:04:36;;;;;;;14.23;13.52;;;6.40;93.20;;;;;;5034914;28;20299;-77
2021/01/28 09:07:03;;;;;;;15.40;14.50;;;6.40;93.10;;;;;;5034286;28;20220;-78
2021/01/28 09:09:31;;;;;;;14.30;13.40;;;6.50;92.70;;;;;;5033984;28;20200;-78
2021/01/28 09:12:21;;;;;;;14.32;13.38;;;6.50;92.80;;;;;;5032649;28;20200;-78
2021/01/28 09:14:47;;;;;;;15.35;14.45;;;6.40;93.50;;;;;;5032510;28;20200;-78
2021/01/28 09:17:22;;;;;;;16.33;14.82;;;6.40;93.60;;;;;;5032413;28;20248;-78
2021/01/28 09:19:55;;;;;;;16.27;15.18;;;6.40;93.40;;;;;;5037985;28;20234;-78
2021/01/28 09:22:30;;;;;;;14.40;13.70;;;6.50;93.20;;;;;;5042094;28;20201;-78
2021/01/28 09:24:56;;;;;;;15.68;14.77;;;6.50;92.70;;;;;;5036709;28;20208;-78
2021/01/28 09:27:34;;;;;;;14.90;14.10;;;6.60;92.70;;;;;;5036365;28;20220;-78
2021/01/28 09:30:20;;;;;;;15.80;14.20;;;6.60;93.00;;;;;;5036494;28;20677;-78
2021/01/28 09:32:47;;;;;;;13.75;12.73;;;6.70;93.00;;;;;;5036258;28;20205;-78
2021/01/28 09:35:21;;;;;;;14.98;13.90;;;6.70;92.90;;;;;;5036232;28;20200;-78
2021/01/28 09:38:01;;;;;;;14.73;13.73;;;6.70;92.80;;;;;;5036293;28;20559;-78
2021/01/28 09:40:30;;;;;;;15.90;14.65;;;6.80;92.90;;;;;;5037824;28;20220;-78
2021/01/28 09:43:18;;;;;;;18.90;14.82;;;6.80;92.70;;;;;;5039782;28;20199;-77
2021/01/28 09:46:04;;;;;;;15.68;14.63;;;6.90;92.70;;;;;;5037493;28;20205;-78
2021/01/28 09:48:31;;;;;;;14.02;13.13;;;6.90;92.30;;;;;;5036216;28;20724;-78
2021/01/28 09:50:57;;;;;;;14.27;13.48;;;6.90;92.70;;;;;;5036097;28;20209;-78
2021/01/28 09:53:24;;;;;;;16.33;15.23;;;6.80;92.60;;;;;;5036118;28;20202;-78
2021/01/28 09:55:51;;;;;;;15.93;15.02;;;6.90;92.50;;;;;;5036025;28;20287;-78
2021/01/28 09:58:18;;;;;;;15.02;14.13;;;6.90;92.70;;;;;;5035916;28;20224;-78
2021/01/28 10:00:45;;;;;;;16.25;15.27;;;6.90;92.70;;;;;;5035879;28;20227;-78
2021/01/28 10:03:12;;;;;;;15.30;14.32;;;6.90;92.80;;;;;;5035915;28;20617;-78
2021/01/28 10:05:38;;;;;;;14.68;13.85;;;7.00;92.60;;;;;;5035513;28;20216;-78
2021/01/28 10:08:06;;;;;;;13.75;13.05;;;7.00;92.50;;;;;;5035321;28;20228;-78
2021/01/28 10:10:34;;;;;;;14.70;13.90;;;7.00;92.70;;;;;;5035573;28;20288;-78
2021/01/28 10:13:04;;;;;;;13.88;13.23;;;7.10;92.80;;;;;;5035373;28;20200;-78
2021/01/28 10:15:31;;;;;;;13.20;12.60;;;7.10;92.60;;;;;;5035237;28;20197;-78
2021/01/28 10:17:59;;;;;;;13.82;13.13;;;7.10;92.70;;;;;;5035578;28;20230;-78
2021/01/28 10:20:25;;;;;;;14.05;13.35;;;7.10;92.90;;;;;;5035760;28;20231;-78
2021/01/28 10:22:52;;;;;;;13.32;12.63;;;7.20;92.90;;;;;;5035351;28;20209;-78
2021/01/28 10:25:21;;;;;;;12.88;12.27;;;7.30;92.80;;;;;;5035661;28;20212;-78
2021/01/28 10:27:48;;;;;;;13.20;12.60;;;7.40;92.80;;;;;;5035377;28;20228;-78
2021/01/28 10:30:16;;;;;;;13.55;12.85;;;7.30;93.00;;;;;;5034318;28;20193;-78
2021/01/28 10:32:44;;;;;;;13.90;12.80;;;7.30;93.30;;;;;;5035357;28;20625;-78
2021/01/28 10:35:13;;;;;;;12.73;12.02;;;7.40;93.50;;;;;;5035474;28;20259;-78
2021/01/28 10:37:39;;;;;;;13.43;12.63;;;7.40;93.20;;;;;;5034749;28;20586;-78
2021/01/28 10:40:07;;;;;;;12.70;12.15;;;7.40;93.60;;;;;;5034939;28;20655;-78
2021/01/28 10:42:38;;;;;;;13.88;13.18;;;7.50;93.40;;;;;;5035113;28;20197;-78
2021/01/28 10:45:06;;;;;;;12.88;12.27;;;7.60;93.40;;;;;;5035188;28;20288;-78
2021/01/28 10:47:33;;;;;;;12.52;11.93;;;7.60;93.30;;;;;;5034702;28;20590;-78
2021/01/28 10:50:00;;;;;;;12.75;12.15;;;7.60;93.40;;;;;;5034854;28;20688;-78
2021/01/28 10:52:26;;;;;;;12.20;11.70;;;7.70;93.50;;;;;;5034781;28;20209;-78
2021/01/28 10:54:53;;;;;;;14.60;13.70;;;7.70;93.10;;;;;;5034811;28;20730;-78
2021/01/28 10:57:19;;;;;;;14.57;13.27;;;7.80;93.20;;;;;;5034560;28;20225;-78
2021/01/28 10:59:45;;;;;;;12.68;12.07;;;7.90;92.90;;;;;;5035354;28;20244;-78
2021/01/28 11:02:12;;;;;;;12.60;11.98;;;8.00;93.10;;;;;;5035659;28;20197;-78
2021/01/28 11:04:38;;;;;;;13.20;12.60;;;8.20;92.50;;;;;;5035925;28;20197;-78
2021/01/28 11:07:05;;;;;;;13.55;12.85;;;8.30;92.00;;;;;;5034679;28;20236;-78
2021/01/28 11:09:31;;;;;;;14.50;13.70;;;8.40;91.90;;;;;;5034555;28;20197;-78
2021/01/28 11:11:58;;;;;;;14.23;13.52;;;8.40;91.10;;;;;;5034800;28;20197;-78
2021/01/28 11:14:24;;;;;;;13.75;13.05;;;8.50;91.10;;;;;;5036874;28;20205;-78
2021/01/28 11:16:51;;;;;;;83.32;20.70;;;8.50;91.10;;;;;;5038325;28;20299;-78
2021/01/28 11:19:17;;;;;;;13.90;13.20;;;8.50;91.00;;;;;;5034458;28;20224;-78
2021/01/28 11:21:44;;;;;;;14.82;13.90;;;8.50;91.00;;;;;;5034506;28;20228;-78
2021/01/28 11:24:12;;;;;;;14.15;13.38;;;8.50;90.90;;;;;;5034299;28;20197;-78
2021/01/28 11:26:38;;;;;;;16.70;15.48;;;8.40;90.90;;;;;;5034510;28;20202;-78
2021/01/28 11:29:06;;;;;;;13.18;12.48;;;8.30;92.10;;;;;;5034263;28;20247;-78
2021/01/28 11:31:32;;;;;;;13.30;12.60;;;8.40;92.20;;;;;;5034120;28;20201;-78
2021/01/28 11:33:59;;;;;;;13.38;12.68;;;8.40;91.80;;;;;;5034316;28;20197;-78
2021/01/28 11:36:25;;;;;;;13.15;12.55;;;8.50;91.50;;;;;;5034095;28;20681;-78
2021/01/28 11:38:51;;;;;;;13.02;12.32;;;8.70;91.20;;;;;;5034188;28;20662;-78
2021/01/28 11:41:19;;;;;;;13.75;13.15;;;9.00;90.50;;;;;;5033826;28;20197;-78
2021/01/28 11:43:45;;;;;;;15.10;13.98;;;9.10;90.40;;;;;;5034136;28;20201;-78
2021/01/28 11:46:11;;;;;;;14.20;13.50;;;9.40;89.90;;;;;;5033790;28;20201;-78
2021/01/28 11:48:38;;;;;;;14.05;13.35;;;9.50;89.60;;;;;;5033957;28;20248;-78
2021/01/28 11:51:04;;;;;;;14.20;13.30;;;9.60;88.90;;;;;;5033707;28;20209;-78
2021/01/28 11:53:31;;;;;;;15.10;14.18;;;9.70;88.60;;;;;;5033801;28;20300;-78
2021/01/28 11:55:57;;;;;;;16.00;14.80;;;9.70;88.60;;;;;;5033691;28;20247;-78
2021/01/28 11:58:25;;;;;;;14.25;13.55;;;9.80;88.50;;;;;;5033901;28;20483;-78
2021/01/28 12:00:51;;;;;;;15.13;14.17;;;9.70;88.60;;;;;;5033726;28;20225;-78
2021/01/28 12:03:17;;;;;;;37.72;17.30;;;9.70;88.20;;;;;;5033643;28;20500;-78
2021/01/28 12:05:44;;;;;;;14.63;13.93;;;9.60;88.80;;;;;;5033802;28;20207;-78
2021/01/28 12:08:11;;;;;;;14.10;13.50;;;9.60;88.80;;;;;;5033365;28;20471;-78
2021/01/28 12:10:37;;;;;;;14.53;13.83;;;9.70;89.00;;;;;;5033835;28;20451;-78
2021/01/28 12:13:04;;;;;;;16.10;15.10;;;9.80;88.60;;;;;;5033663;28;20482;-78
2021/01/28 12:15:31;;;;;;;15.07;14.27;;;10.00;88.90;;;;;;5032977;28;20464;-78
2021/01/28 12:17:57;;;;;;;14.23;13.50;;;10.20;88.10;;;;;;5033490;28;20471;-78
2021/01/28 12:20:25;;;;;;;15.73;14.90;;;10.40;87.70;;;;;;5033539;28;20486;-78
2021/01/28 12:22:52;;;;;;;15.30;14.50;;;10.40;87.50;;;;;;5033658;28;20574;-78
2021/01/28 12:25:19;;;;;;;15.63;14.60;;;10.50;87.40;;;;;;5033688;28;20456;-78
2021/01/28 12:27:46;;;;;;;16.23;15.43;;;10.50;87.10;;;;;;5033166;28;20476;-78
2021/01/28 12:30:14;;;;;;;14.77;14.07;;;10.60;86.80;;;;;;5033276;28;20456;-78
2021/01/28 12:32:41;;;;;;;15.80;15.10;;;10.60;86.70;;;;;;5033248;28;20456;-78
2021/01/28 12:35:08;;;;;;;15.40;14.70;;;10.70;86.20;;;;;;5033635;28;20872;-78
2021/01/28 12:37:36;;;;;;;14.50;13.90;;;10.70;86.80;;;;;;5032991;28;20554;-78
2021/01/28 12:40:04;;;;;;;14.93;14.23;;;10.70;86.90;;;;;;5033093;28;20533;-78
2021/01/28 12:42:30;;;;;;;15.93;15.03;;;10.80;86.40;;;;;;5033036;28;20451;-78
2021/01/28 12:44:57;;;;;;;16.20;15.40;;;10.80;86.70;;;;;;5033071;28;20470;-78
2021/01/28 12:47:23;;;;;;;15.80;14.90;;;10.80;86.60;;;;;;5033132;28;20561;-78
2021/01/28 12:49:50;;;;;;;14.57;13.87;;;10.80;87.10;;;;;;5037470;28;20451;-78
2021/01/28 12:52:17;;;;;;;15.80;15.00;;;10.80;86.90;;;;;;5034866;28;20532;-78
2021/01/28 12:54:43;;;;;;;15.20;14.40;;;10.70;87.30;;;;;;5032972;28;20459;-78